Time;durP1;ratioP1;P1;durP2;ratioP2;P2;SDS_P1;SDS_P2;PMS_P1;PMS_P2;Temp;Humidity;BMP_temperature;BMP_pressure;BME280_temperature;BME280_humidity;BME280_pressure;Samples;Min_cycle;Max_cycle;Signal;HPM_P1;HPM_P2
2023/05/24 00:01:41;;;;;;;9.93;6.60;;;;;;;17.76;93.77;99551.00;5142064;27;20037;-64
2023/05/24 00:04:06;;;;;;;9.95;6.03;;;;;;;17.53;94.30;99542.59;5141827;27;20043;-63
2023/05/24 00:06:33;;;;;;;8.52;6.03;;;;;;;17.49;94.67;99544.88;5136586;27;20039;-64
2023/05/24 00:08:59;;;;;;;8.98;6.15;;;;;;;17.42;95.01;99543.25;5132266;27;20046;-63
2023/05/24 00:11:26;;;;;;;11.13;6.18;;;;;;;17.25;95.74;99537.53;5133733;27;20019;-63
2023/05/24 00:13:52;;;;;;;10.43;6.80;;;;;;;17.23;96.14;99548.44;5123966;27;20043;-63
2023/05/24 00:16:17;;;;;;;9.18;6.38;;;;;;;17.17;96.88;99543.94;5124105;27;20038;-64
2023/05/24 00:18:45;;;;;;;9.43;6.82;;;;;;;17.16;96.86;99541.47;5122446;27;20035;-64
2023/05/24 00:21:12;;;;;;;12.05;7.80;;;;;;;17.10;97.69;99544.97;5125393;27;20039;-64
2023/05/24 00:23:38;;;;;;;12.15;8.15;;;;;;;17.14;97.16;99543.53;5127751;27;20039;-64
2023/05/24 00:26:04;;;;;;;11.07;7.85;;;;;;;17.15;96.80;99540.66;5125971;27;20146;-64
2023/05/24 00:28:30;;;;;;;10.98;7.60;;;;;;;17.14;97.64;99540.84;5125045;27;20031;-64
2023/05/24 00:30:56;;;;;;;10.18;8.05;;;;;;;17.15;97.34;99545.16;5124345;27;20286;-64
2023/05/24 00:33:22;;;;;;;9.40;6.82;;;;;;;17.05;97.45;99539.44;5127250;27;20094;-64
2023/05/24 00:35:48;;;;;;;11.48;6.78;;;;;;;17.03;97.27;99533.47;5126492;27;20074;-64
2023/05/24 00:38:14;;;;;;;8.15;6.97;;;;;;;16.94;96.95;99524.84;5124216;27;20320;-64
2023/05/24 00:40:39;;;;;;;8.52;6.40;;;;;;;16.88;96.98;99525.69;5126048;27;20040;-64
2023/05/24 00:43:05;;;;;;;8.48;6.38;;;;;;;16.86;96.15;99522.38;5126203;27;20037;-64
2023/05/24 00:45:30;;;;;;;9.48;6.53;;;;;;;16.87;96.00;99521.34;5126112;27;20036;-64
2023/05/24 00:47:56;;;;;;;7.32;6.15;;;;;;;16.96;95.25;99513.94;5123497;27;20056;-64
2023/05/24 00:50:21;;;;;;;8.52;5.95;;;;;;;17.00;94.69;99518.66;5123478;27;20340;-64
2023/05/24 00:52:50;;;;;;;8.43;6.13;;;;;;;17.01;94.27;99527.50;5127292;27;20376;-64
2023/05/24 00:55:15;;;;;;;7.05;5.95;;;;;;;17.04;93.72;99529.75;5125634;27;20324;-64
2023/05/24 00:57:41;;;;;;;9.85;6.38;;;;;;;17.03;93.39;99528.94;5124612;27;20035;-64
2023/05/24 01:00:08;;;;;;;9.93;7.50;;;;;;;17.08;93.21;99520.28;5122405;27;20040;-64
2023/05/24 01:02:34;;;;;;;14.70;8.93;;;;;;;17.17;92.29;99524.38;5123549;27;20031;-64
2023/05/24 01:04:59;;;;;;;14.65;8.43;;;;;;;17.12;91.43;99518.84;5125671;27;20322;-64
2023/05/24 01:07:57;;;;;;;12.50;7.45;;;;;;;17.05;91.15;99524.19;5124627;27;20027;-64
2023/05/24 01:10:47;;;;;;;14.23;8.52;;;;;;;17.06;90.72;99517.81;5074244;28;20072;-64
2023/05/24 01:13:56;;;;;;;10.63;6.72;;;;;;;17.06;90.88;99517.00;5122349;27;20077;-64
2023/05/24 01:16:30;;;;;;;8.75;6.60;;;;;;;17.08;90.06;99506.91;5122886;27;20032;-64
2023/05/24 01:18:59;;;;;;;8.98;6.60;;;;;;;17.12;89.50;99506.28;5125921;27;20032;-64
2023/05/24 01:21:47;;;;;;;10.30;6.28;;;;;;;17.15;89.67;99515.75;5126989;27;20274;-64
2023/05/24 01:24:24;;;;;;;7.32;5.68;;;;;;;17.16;88.78;99507.50;5122698;27;20054;-64
2023/05/24 01:27:11;;;;;;;8.23;5.75;;;;;;;17.22;88.34;99504.00;5125579;27;20039;-64
2023/05/24 01:29:38;;;;;;;8.48;6.07;;;;;;;17.29;86.78;99505.81;5121438;27;20591;-64
2023/05/24 01:32:04;;;;;;;8.10;6.00;;;;;;;17.24;86.53;99509.94;5126601;27;20035;-64
2023/05/24 01:34:30;;;;;;;7.47;5.70;;;;;;;17.22;86.54;99516.53;5121933;27;20333;-64
2023/05/24 01:36:55;;;;;;;8.95;6.18;;;;;;;17.24;85.62;99520.66;5125290;27;20028;-64
2023/05/24 01:39:24;;;;;;;8.75;5.57;;;;;;;17.16;85.50;99530.75;5132953;27;20107;-64
2023/05/24 01:41:56;;;;;;;6.97;5.93;;;;;;;16.90;85.89;99540.47;5125132;27;20027;-64
2023/05/24 01:45:15;;;;;;;8.13;6.70;;;;;;;16.59;88.02;99549.09;5122269;27;20049;-64
2023/05/24 01:48:05;;;;;;;7.35;6.15;;;;;;;16.41;88.14;99543.53;5100997;27;20066;-64
2023/05/24 01:50:34;;;;;;;9.75;6.35;;;;;;;16.42;88.59;99545.16;5121334;27;20042;-64
2023/05/24 01:53:03;;;;;;;9.65;6.43;;;;;;;16.42;88.33;99539.00;5128382;27;20210;-64
2023/05/24 01:55:31;;;;;;;9.15;6.30;;;;;;;16.42;89.26;99545.16;5128841;27;20039;-64
2023/05/24 01:58:01;;;;;;;8.35;6.00;;;;;;;16.35;87.38;99552.34;5124184;27;20214;-64
2023/05/24 02:00:27;;;;;;;9.38;6.13;;;;;;;16.31;88.66;99550.28;5123285;27;20059;-63
2023/05/24 02:02:54;;;;;;;9.40;5.78;;;;;;;16.22;89.27;99547.00;5121648;27;20035;-64
2023/05/24 02:05:20;;;;;;;10.52;6.85;;;;;;;16.29;89.14;99554.00;5126165;27;20109;-64
2023/05/24 02:07:45;;;;;;;12.85;7.10;;;;;;;16.25;89.84;99555.44;5123655;27;20049;-64
2023/05/24 02:10:11;;;;;;;10.02;6.15;;;;;;;16.18;90.82;99553.78;5121181;27;20035;-63
2023/05/24 02:12:36;;;;;;;9.18;6.00;;;;;;;16.19;90.47;99560.75;5124822;27;20039;-63
2023/05/24 02:15:03;;;;;;;9.30;6.70;;;;;;;16.15;91.50;99564.84;5124877;27;20422;-64
2023/05/24 02:17:31;;;;;;;11.75;6.78;;;;;;;16.21;91.80;99562.19;5123218;27;20099;-64
2023/05/24 02:19:58;;;;;;;8.00;6.05;;;;;;;15.85;92.13;99569.72;5131022;27;20334;-64
2023/05/24 02:22:25;;;;;;;7.40;6.13;;;;;;;15.90;92.30;99572.59;5120750;27;20035;-64
2023/05/24 02:24:50;;;;;;;10.43;6.78;;;;;;;15.92;92.37;99578.56;5124757;27;20035;-63
2023/05/24 02:27:15;;;;;;;7.80;6.25;;;;;;;15.86;92.21;99577.53;5123500;27;20348;-64
2023/05/24 02:29:41;;;;;;;8.90;5.95;;;;;;;15.80;93.13;99575.66;5122521;27;20050;-64
2023/05/24 02:32:06;;;;;;;8.43;6.05;;;;;;;15.62;95.29;99572.69;5121595;27;20035;-64
2023/05/24 02:34:32;;;;;;;9.63;6.28;;;;;;;15.45;96.88;99577.47;5121883;27;20303;-64
2023/05/24 02:36:58;;;;;;;9.45;6.60;;;;;;;15.56;96.26;99584.94;5122467;27;20035;-64
2023/05/24 02:39:23;;;;;;;8.48;6.22;;;;;;;15.31;96.30;99581.09;5121761;27;20039;-64
2023/05/24 02:41:48;;;;;;;8.23;6.00;;;;;;;15.53;95.51;99579.16;5124067;27;20035;-64
2023/05/24 02:44:14;;;;;;;10.75;6.55;;;;;;;15.66;94.45;99589.13;5123682;27;20104;-64
2023/05/24 02:46:40;;;;;;;8.35;6.60;;;;;;;15.65;93.98;99582.97;5123072;27;20034;-64
2023/05/24 02:49:05;;;;;;;8.43;6.20;;;;;;;15.65;94.70;99582.97;5124986;27;20032;-64
2023/05/24 02:51:31;;;;;;;8.35;6.68;;;;;;;15.85;93.75;99583.88;5122296;27;20027;-64
2023/05/24 02:53:57;;;;;;;9.13;6.63;;;;;;;15.94;93.95;99582.69;5122614;27;20047;-64
2023/05/24 02:56:22;;;;;;;9.82;6.20;;;;;;;16.09;92.64;99579.84;5123683;27;20046;-64
2023/05/24 02:58:48;;;;;;;9.10;6.63;;;;;;;16.15;91.65;99583.56;5123639;27;20050;-64
2023/05/24 03:01:14;;;;;;;8.32;7.03;;;;;;;16.15;91.76;99570.19;5126944;27;20031;-64
2023/05/24 03:03:40;;;;;;;9.30;6.55;;;;;;;16.17;91.94;99565.47;5124393;27;20384;-64
2023/05/24 03:06:06;;;;;;;7.57;5.55;;;;;;;16.29;90.97;99569.19;5124786;27;20305;-64
2023/05/24 03:08:32;;;;;;;10.85;6.47;;;;;;;16.22;91.36;99577.22;5124725;27;20201;-64
2023/05/24 03:10:58;;;;;;;12.43;6.68;;;;;;;16.30;91.94;99573.53;5124966;28;20107;-64
2023/05/24 03:13:23;;;;;;;11.05;6.90;;;;;;;16.34;91.26;99572.09;5124865;28;20043;-64
2023/05/24 03:15:49;;;;;;;13.35;6.63;;;;;;;16.41;91.19;99566.75;5123335;28;20066;-64
2023/05/24 03:18:14;;;;;;;9.50;6.35;;;;;;;16.50;90.83;99577.03;5120188;28;20028;-64
2023/05/24 03:20:40;;;;;;;9.85;6.22;;;;;;;16.52;91.48;99582.19;5119949;28;20031;-64
2023/05/24 03:23:06;;;;;;;9.75;6.78;;;;;;;16.54;90.91;99583.63;5121066;28;20128;-64
2023/05/24 03:25:31;;;;;;;11.68;7.30;;;;;;;16.52;89.49;99588.34;5123985;27;20213;-63
2023/05/24 03:27:57;;;;;;;12.88;6.95;;;;;;;16.63;89.03;99586.09;5124958;27;20039;-64
2023/05/24 03:30:22;;;;;;;11.02;7.30;;;;;;;16.68;88.29;99579.16;5126210;27;20341;-64
2023/05/24 03:32:47;;;;;;;8.38;7.00;;;;;;;16.75;86.72;99589.84;5128657;27;20027;-64
2023/05/24 03:35:13;;;;;;;11.88;7.88;;;;;;;16.78;85.52;99590.28;5128887;27;20237;-64
2023/05/24 03:37:39;;;;;;;10.88;7.35;;;;;;;16.75;85.67;99589.84;5127236;27;20166;-64
2023/05/24 03:40:05;;;;;;;10.65;8.13;;;;;;;16.70;87.41;99589.66;5126716;27;20027;-64
2023/05/24 03:42:31;;;;;;;10.65;7.97;;;;;;;16.77;87.76;99585.13;5127922;27;20039;-64
2023/05/24 03:44:56;;;;;;;13.57;9.05;;;;;;;16.80;87.68;99587.41;5125602;27;20053;-64
2023/05/24 03:47:22;;;;;;;11.30;8.98;;;;;;;16.86;88.23;99581.22;5124246;27;20039;-64
2023/05/24 03:49:47;;;;;;;13.55;8.55;;;;;;;16.95;87.84;99579.16;5128316;27;20043;-64
2023/05/24 03:52:12;;;;;;;11.50;7.70;;;;;;;16.94;88.36;99591.72;5126606;27;20028;-63
2023/05/24 03:54:38;;;;;;;12.55;8.63;;;;;;;16.82;89.24;99582.66;5125757;27;20109;-63
2023/05/24 03:57:04;;;;;;;14.68;8.95;;;;;;;16.77;90.22;99572.59;5123746;27;20027;-63
2023/05/24 03:59:29;;;;;;;12.25;9.02;;;;;;;16.75;90.94;99571.97;5127618;27;20039;-64
2023/05/24 04:01:55;;;;;;;13.43;9.70;;;;;;;16.74;91.27;99583.69;5123554;27;20023;-63
2023/05/24 04:04:21;;;;;;;12.65;8.57;;;;;;;16.78;90.89;99578.75;5124850;27;20040;-64
2023/05/24 04:06:46;;;;;;;15.45;8.75;;;;;;;16.77;90.18;99585.94;5124039;27;20054;-63
2023/05/24 04:09:12;;;;;;;11.93;7.93;;;;;;;16.74;89.43;99581.03;5128315;27;20073;-64
2023/05/24 04:11:38;;;;;;;10.45;7.20;;;;;;;16.74;89.80;99586.38;5126372;27;20031;-63
2023/05/24 04:14:03;;;;;;;13.05;7.10;;;;;;;16.74;88.89;99580.19;5127916;27;20040;-63
2023/05/24 04:16:32;;;;;;;10.10;7.40;;;;;;;16.79;88.85;99585.75;5123144;27;20027;-63
2023/05/24 04:19:00;;;;;;;10.93;7.68;;;;;;;16.89;89.26;99586.16;5126433;27;20120;-63
2023/05/24 04:21:26;;;;;;;13.27;7.72;;;;;;;16.92;88.72;99586.56;5123986;27;20032;-63
2023/05/24 04:23:52;;;;;;;12.65;7.90;;;;;;;17.13;89.07;99598.06;5127623;27;20035;-63
2023/05/24 04:26:17;;;;;;;12.32;8.15;;;;;;;17.38;88.02;99582.16;5125023;27;20031;-64
2023/05/24 04:28:44;;;;;;;9.35;7.68;;;;;;;17.67;87.64;99591.56;5124055;27;20270;-64
2023/05/24 04:31:10;;;;;;;12.23;8.75;;;;;;;17.94;86.46;99589.66;5127237;27;20023;-65
2023/05/24 04:33:38;;;;;;;10.60;7.95;;;;;;;18.13;84.89;99588.72;5125445;27;20043;-65
2023/05/24 04:36:03;;;;;;;14.25;8.93;;;;;;;18.39;83.55;99593.91;5125916;27;20035;-65
2023/05/24 04:38:31;;;;;;;11.32;9.07;;;;;;;18.51;81.65;99584.13;5127674;27;20058;-64
2023/05/24 04:40:59;;;;;;;16.38;9.95;;;;;;;18.77;81.23;99588.53;5126523;27;20329;-63
2023/05/24 04:43:28;;;;;;;17.23;9.77;;;;;;;18.84;80.38;99593.03;5124629;27;20079;-64
2023/05/24 04:45:54;;;;;;;14.68;9.70;;;;;;;19.02;79.86;99599.25;5123215;27;20046;-64
2023/05/24 04:48:23;;;;;;;11.13;8.25;;;;;;;19.23;78.41;99602.59;5127452;27;20102;-64
2023/05/24 04:50:53;;;;;;;11.32;7.10;;;;;;;19.27;77.19;99603.78;5127824;27;20360;-64
2023/05/24 04:53:19;;;;;;;8.77;7.13;;;;;;;19.30;76.94;99598.78;5123378;27;20023;-64
2023/05/24 04:55:45;;;;;;;8.57;6.75;;;;;;;19.32;75.38;99617.34;5126614;27;20051;-64
2023/05/24 04:58:10;;;;;;;8.55;7.32;;;;;;;19.43;75.78;99605.88;5125317;27;20072;-64
2023/05/24 05:00:35;;;;;;;10.20;7.32;;;;;;;19.62;75.71;99607.56;5126418;27;20054;-64
2023/05/24 05:03:01;;;;;;;11.05;6.65;;;;;;;19.54;74.26;99607.03;5124344;27;20028;-65
2023/05/24 05:05:26;;;;;;;11.55;8.68;;;;;;;19.82;73.59;99611.91;5124505;27;20210;-64
2023/05/24 05:07:52;;;;;;;11.18;8.15;;;;;;;19.90;73.75;99608.91;5138686;27;20031;-64
2023/05/24 05:10:17;;;;;;;11.77;7.65;;;;;;;19.93;74.65;99611.16;5127391;27;20039;-64
2023/05/24 05:12:43;;;;;;;11.93;8.32;;;;;;;20.19;74.99;99618.06;5125934;27;20038;-64
2023/05/24 05:15:09;;;;;;;11.50;7.57;;;;;;;20.31;72.88;99618.91;5123616;27;20252;-64
2023/05/24 05:17:35;;;;;;;10.02;6.20;;;;;;;20.21;70.59;99622.16;5123378;27;20112;-64
2023/05/24 05:20:00;;;;;;;9.88;7.03;;;;;;;20.16;72.19;99613.13;5123658;27;20377;-64
2023/05/24 05:22:26;;;;;;;8.07;7.28;;;;;;;20.20;71.80;99612.44;5122135;27;20336;-64
2023/05/24 05:24:51;;;;;;;8.50;6.75;;;;;;;20.25;71.82;99617.13;5125860;27;20040;-64
2023/05/24 05:27:17;;;;;;;9.15;5.93;;;;;;;20.21;72.69;99613.28;5125356;27;20079;-64
2023/05/24 05:29:42;;;;;;;7.60;5.70;;;;;;;20.33;72.02;99614.13;5130763;27;20196;-64
2023/05/24 05:32:08;;;;;;;8.30;6.05;;;;;;;20.47;71.35;99612.09;5122320;27;20037;-64
2023/05/24 05:34:33;;;;;;;8.52;7.65;;;;;;;20.50;70.52;99612.47;5123223;27;20062;-64
2023/05/24 05:36:58;;;;;;;9.98;6.63;;;;;;;20.51;69.56;99616.78;5126615;27;20370;-64
2023/05/24 05:39:24;;;;;;;10.75;7.90;;;;;;;20.65;70.87;99615.53;5125481;27;20048;-64
2023/05/24 05:41:50;;;;;;;7.70;6.75;;;;;;;20.77;69.85;99617.44;5126314;27;20038;-64
2023/05/24 05:44:16;;;;;;;7.10;6.07;;;;;;;20.93;69.53;99619.47;5123836;27;20077;-64
2023/05/24 05:46:44;;;;;;;6.95;5.93;;;;;;;20.84;68.06;99605.53;5126285;27;21265;-64
2023/05/24 05:49:14;;;;;;;9.68;7.03;;;;;;;21.12;66.78;99620.19;5124825;27;20040;-64
2023/05/24 05:51:39;;;;;;;7.20;5.90;;;;;;;21.45;66.61;99630.41;5123207;27;20035;-64
2023/05/24 05:54:05;;;;;;;9.88;6.43;;;;;;;21.54;65.79;99627.13;5123728;27;20057;-64
2023/05/24 05:56:31;;;;;;;7.25;4.90;;;;;;;21.81;65.60;99629.28;5126444;27;20039;-64
2023/05/24 05:58:56;;;;;;;6.00;5.28;;;;;;;21.97;64.86;99633.97;5125126;27;20109;-64
2023/05/24 06:01:23;;;;;;;5.30;4.65;;;;;;;21.82;64.63;99629.06;5123210;27;20035;-65
2023/05/24 06:03:50;;;;;;;7.68;6.15;;;;;;;21.91;64.55;99634.94;5124806;27;20047;-64
2023/05/24 06:06:15;;;;;;;8.40;7.28;;;;;;;22.28;63.75;99638.94;5121250;27;20024;-65
2023/05/24 06:08:40;;;;;;;6.78;5.57;;;;;;;22.40;62.15;99633.50;5125482;27;20465;-64
2023/05/24 06:11:06;;;;;;;5.55;5.05;;;;;;;22.41;61.61;99632.44;5125428;27;20040;-65
2023/05/24 06:13:31;;;;;;;5.78;5.28;;;;;;;22.55;61.92;99632.94;5124642;27;20035;-65
2023/05/24 06:15:57;;;;;;;5.55;4.55;;;;;;;22.46;61.22;99629.81;5126065;27;20039;-65
2023/05/24 06:18:24;;;;;;;6.70;5.63;;;;;;;22.51;62.28;99635.31;5121415;27;20221;-64
2023/05/24 06:20:50;;;;;;;6.78;5.97;;;;;;;22.70;62.47;99640.50;5123981;27;20043;-64
2023/05/24 06:23:15;;;;;;;7.10;5.40;;;;;;;22.73;61.11;99643.53;5124383;27;20046;-64
2023/05/24 06:25:42;;;;;;;7.07;4.82;;;;;;;22.74;61.92;99649.75;5124382;27;20262;-64
2023/05/24 06:28:08;;;;;;;8.43;5.53;;;;;;;23.06;60.98;99648.19;5122423;27;20035;-64
2023/05/24 06:30:34;;;;;;;7.07;6.13;;;;;;;23.01;59.45;99650.78;5123036;27;20050;-64
2023/05/24 06:33:00;;;;;;;7.55;4.97;;;;;;;23.20;57.73;99654.88;5121809;27;20028;-64
2023/05/24 06:35:25;;;;;;;6.25;4.65;;;;;;;23.47;56.21;99648.78;5125060;27;20260;-64
2023/05/24 06:37:51;;;;;;;6.75;5.10;;;;;;;23.75;56.09;99656.78;5124205;27;20031;-64
2023/05/24 06:40:16;;;;;;;7.20;5.65;;;;;;;23.91;55.18;99644.28;5121622;27;20031;-64
2023/05/24 06:42:42;;;;;;;8.52;6.60;;;;;;;23.88;56.80;99642.06;5120409;27;20038;-64
2023/05/24 06:45:08;;;;;;;8.57;6.28;;;;;;;24.10;56.81;99640.22;5124508;27;20291;-64
2023/05/24 06:47:33;;;;;;;8.27;6.20;;;;;;;24.29;56.58;99637.19;5123243;27;20098;-64
2023/05/24 06:49:59;;;;;;;42.78;25.25;;;;;;;24.12;56.06;99631.84;5122819;27;20299;-64
2023/05/24 06:52:26;;;;;;;45.20;26.05;;;;;;;24.29;55.93;99632.59;5126190;27;20031;-64
2023/05/24 06:54:51;;;;;;;9.90;6.95;;;;;;;24.30;53.09;99626.13;5133162;27;20221;-64
2023/05/24 06:57:17;;;;;;;13.35;7.13;;;;;;;24.27;54.51;99628.53;5131504;27;20070;-64
2023/05/24 06:59:42;;;;;;;6.68;4.82;;;;;;;24.31;53.94;99626.94;5131731;27;20121;-64
2023/05/24 07:02:08;;;;;;;72.53;36.33;;;;;;;24.63;54.61;99621.56;5133094;27;20110;-64
2023/05/24 07:04:33;;;;;;;90.45;44.85;;;;;;;24.80;54.11;99624.97;5132984;27;20118;-64
2023/05/24 07:06:59;;;;;;;10.00;5.93;;;;;;;24.89;53.51;99617.19;5132654;27;20037;-64
2023/05/24 07:09:24;;;;;;;5.35;4.70;;;;;;;25.12;51.36;99625.84;5130856;27;20348;-64
2023/05/24 07:11:51;;;;;;;5.75;5.10;;;;;;;24.83;52.72;99619.03;5133132;27;20119;-64
2023/05/24 07:14:17;;;;;;;5.75;5.15;;;;;;;25.29;51.52;99622.97;5131356;27;20055;-65
2023/05/24 07:16:42;;;;;;;6.95;5.30;;;;;;;25.43;49.34;99624.13;5132334;27;20042;-64
2023/05/24 07:19:08;;;;;;;8.10;4.93;;;;;;;25.52;50.33;99621.75;5133878;27;20466;-64
2023/05/24 07:21:34;;;;;;;5.45;4.95;;;;;;;25.20;48.86;99616.41;5133470;27;20030;-64
2023/05/24 07:23:59;;;;;;;7.07;5.00;;;;;;;25.46;49.36;99620.09;5132062;27;20336;-64
2023/05/24 07:26:25;;;;;;;5.97;5.10;;;;;;;25.46;49.47;99628.22;5133635;27;20050;-64
2023/05/24 07:28:50;;;;;;;6.90;4.88;;;;;;;25.67;49.65;99621.84;5132427;27;20031;-64
2023/05/24 07:31:16;;;;;;;6.30;4.60;;;;;;;25.87;48.36;99621.13;5134112;27;20478;-65
2023/05/24 07:33:41;;;;;;;5.18;4.45;;;;;;;26.21;47.08;99616.13;5132914;27;20046;-65
2023/05/24 07:36:07;;;;;;;6.45;5.00;;;;;;;26.11;47.68;99623.41;5132603;27;20069;-64
2023/05/24 07:38:33;;;;;;;6.38;4.70;;;;;;;26.40;46.71;99619.16;5132359;27;20034;-65
2023/05/24 07:41:00;;;;;;;5.03;3.97;;;;;;;26.37;47.45;99619.72;5132529;27;20039;-64
2023/05/24 07:43:26;;;;;;;5.65;4.40;;;;;;;26.42;45.44;99617.00;5131397;27;20023;-65
2023/05/24 07:45:51;;;;;;;4.60;3.75;;;;;;;26.33;46.61;99619.44;5132628;27;20027;-65
2023/05/24 07:48:22;;;;;;;5.95;4.68;;;;;;;26.21;48.11;99620.72;5134511;27;20417;-65
2023/05/24 07:50:51;;;;;;;5.28;4.15;;;;;;;26.35;46.48;99619.97;5137381;27;20027;-65
2023/05/24 07:53:18;;;;;;;4.63;4.22;;;;;;;26.63;46.02;99613.22;5137553;27;20385;-65
2023/05/24 07:55:43;;;;;;;6.50;4.28;;;;;;;26.76;44.41;99609.16;5138450;28;20077;-65
2023/05/24 07:58:10;;;;;;;6.30;4.50;;;;;;;26.83;43.62;99614.31;5138814;28;20232;-65
2023/05/24 08:00:35;;;;;;;4.93;4.15;;;;;;;26.85;43.55;99606.72;5137025;27;20042;-65
2023/05/24 08:03:01;;;;;;;5.22;4.45;;;;;;;26.93;46.85;99606.97;5138450;28;20042;-65
2023/05/24 08:05:27;;;;;;;4.45;4.05;;;;;;;27.26;44.95;99605.63;5138921;28;20019;-65
2023/05/24 08:07:54;;;;;;;4.60;4.10;;;;;;;27.28;42.58;99616.25;5138322;27;20053;-65
2023/05/24 08:10:19;;;;;;;5.28;4.47;;;;;;;27.15;44.09;99604.03;5138953;27;20481;-65
2023/05/24 08:12:45;;;;;;;5.20;4.53;;;;;;;27.37;43.00;99601.00;5141589;27;20027;-63
2023/05/24 08:15:10;;;;;;;6.05;4.38;;;;;;;27.56;43.37;99606.66;5141788;27;20043;-62
2023/05/24 08:17:37;;;;;;;4.20;3.80;;;;;;;27.60;41.62;99597.69;5141211;27;20035;-63
2023/05/24 08:20:05;;;;;;;5.68;4.50;;;;;;;27.81;42.62;99598.44;5142367;27;20104;-63
2023/05/24 08:22:30;;;;;;;6.70;4.25;;;;;;;27.73;40.45;99603.63;5142205;27;20035;-63
2023/05/24 08:24:56;;;;;;;6.03;4.10;;;;;;;27.74;41.35;99597.91;5141472;27;20043;-65
2023/05/24 08:27:22;;;;;;;4.40;3.95;;;;;;;27.65;43.08;99603.13;5141420;27;20344;-65
2023/05/24 08:29:47;;;;;;;5.75;4.15;;;;;;;27.45;41.66;99595.00;5141883;27;20027;-63
2023/05/24 08:32:13;;;;;;;5.20;4.03;;;;;;;27.53;42.12;99605.31;5141132;27;20058;-65
2023/05/24 08:34:38;;;;;;;5.35;4.63;;;;;;;27.52;42.79;99598.22;5141323;27;20050;-65
2023/05/24 08:37:04;;;;;;;6.25;4.20;;;;;;;27.54;42.62;99595.22;5141377;27;20035;-65
2023/05/24 08:39:30;;;;;;;4.65;4.00;;;;;;;27.45;42.96;99605.06;5141458;27;20118;-65
2023/05/24 08:41:57;;;;;;;4.97;3.80;;;;;;;27.57;44.01;99598.22;5141505;27;20031;-65
2023/05/24 08:44:22;;;;;;;5.40;4.40;;;;;;;27.57;41.58;99594.69;5141563;27;20031;-65
2023/05/24 08:46:49;;;;;;;5.18;4.38;;;;;;;27.61;44.42;99598.50;5141338;27;20035;-65
2023/05/24 08:49:15;;;;;;;6.47;4.07;;;;;;;27.65;43.09;99597.69;5141770;27;20058;-65
2023/05/24 08:51:43;;;;;;;4.32;3.83;;;;;;;27.75;40.90;99598.72;5141499;27;20179;-63
2023/05/24 08:54:12;;;;;;;5.47;3.95;;;;;;;27.67;42.91;99600.94;5137364;27;20085;-63
2023/05/24 08:56:39;;;;;;;5.57;3.92;;;;;;;27.77;42.74;99599.25;5141064;27;20456;-63
2023/05/24 08:59:05;;;;;;;4.65;4.20;;;;;;;27.90;45.44;99590.50;5141145;27;20070;-63
2023/05/24 09:01:31;;;;;;;4.13;3.72;;;;;;;27.84;41.24;99603.31;5136235;27;20031;-63
2023/05/24 09:03:58;;;;;;;5.38;3.80;;;;;;;27.93;39.70;99598.91;5135501;27;20058;-63
2023/05/24 09:06:25;;;;;;;5.82;3.70;;;;;;;28.04;41.28;99590.69;5140583;27;20102;-63
2023/05/24 09:08:52;;;;;;;6.63;4.35;;;;;;;28.10;40.30;99589.59;5140158;27;20062;-63
2023/05/24 09:11:19;;;;;;;6.90;4.13;;;;;;;28.05;40.81;99600.50;5140852;27;20027;-64
2023/05/24 09:13:46;;;;;;;4.53;3.92;;;;;;;28.10;39.88;99595.06;5139921;27;20094;-65
2023/05/24 09:16:13;;;;;;;5.75;3.72;;;;;;;28.14;40.76;99593.38;5139577;27;20061;-65
2023/05/24 09:18:41;;;;;;;5.13;3.38;;;;;;;28.20;39.65;99600.44;5139713;27;20039;-65
2023/05/24 09:21:08;;;;;;;7.30;3.90;;;;;;;28.21;38.69;99602.06;5139788;27;20031;-65
2023/05/24 09:23:34;;;;;;;5.43;4.10;;;;;;;28.13;38.66;99592.56;5139449;27;20110;-63
2023/05/24 09:26:09;;;;;;;5.43;4.20;;;;;;;28.06;37.92;99596.69;5132365;27;20430;-65
2023/05/24 09:28:36;;;;;;;4.10;3.70;;;;;;;27.83;38.51;99587.25;5127742;27;20050;-65
2023/05/24 09:31:03;;;;;;;6.40;3.90;;;;;;;27.67;40.35;99584.59;5123558;27;20035;-65
2023/05/24 09:33:32;;;;;;;4.22;3.75;;;;;;;27.67;40.71;99587.31;5123318;27;20042;-63
2023/05/24 09:35:59;;;;;;;6.53;4.13;;;;;;;27.50;40.67;99586.00;5123621;27;20548;-63
2023/05/24 09:38:26;;;;;;;7.70;4.22;;;;;;;27.44;38.48;99585.19;5123509;27;20065;-63
2023/05/24 09:41:02;;;;;;;5.50;3.13;;;;;;;27.39;37.46;99584.41;5122608;27;20372;-62
2023/05/24 09:43:29;;;;;;;3.95;3.20;;;;;;;27.30;36.06;99582.25;5124524;27;20031;-63
2023/05/24 09:45:56;;;;;;;4.70;3.30;;;;;;;27.28;36.61;99578.19;5122350;27;20079;-63
2023/05/24 09:48:22;;;;;;;4.63;3.60;;;;;;;27.16;37.25;99580.38;5118603;27;20050;-65
2023/05/24 09:51:06;;;;;;;4.05;3.55;;;;;;;27.12;37.41;99576.59;5120516;27;20161;-65
2023/05/24 09:53:33;;;;;;;3.65;3.33;;;;;;;27.21;37.96;99583.91;5122876;27;20023;-65
2023/05/24 09:56:00;;;;;;;4.82;3.88;;;;;;;27.26;36.58;99573.03;5122767;27;20035;-65
2023/05/24 09:58:32;;;;;;;7.53;6.20;;;;;;;27.12;37.42;99573.88;5119433;27;20055;-63
2023/05/24 10:01:09;;;;;;;4.78;3.30;;;;;;;27.08;35.26;99580.94;5121463;27;20314;-63
2023/05/24 10:03:36;;;;;;;4.85;3.50;;;;;;;27.04;34.66;99577.94;5123695;27;20045;-63
2023/05/24 10:06:05;;;;;;;4.88;3.38;;;;;;;27.04;35.87;99569.78;5121380;27;20094;-63
2023/05/24 10:08:33;;;;;;;6.28;3.88;;;;;;;26.98;35.96;99571.69;5122928;27;20142;-63
2023/05/24 10:11:01;;;;;;;4.95;3.22;;;;;;;26.96;36.54;99568.41;5124161;27;20073;-63
2023/05/24 10:13:27;;;;;;;3.70;3.40;;;;;;;26.99;38.53;99567.88;5122293;27;20038;-63
2023/05/24 10:15:53;;;;;;;4.30;3.90;;;;;;;26.87;37.85;99556.44;5098646;27;20046;-65
2023/05/24 10:18:19;;;;;;;4.90;4.05;;;;;;;27.00;36.93;99557.81;5120496;27;20031;-65
2023/05/24 10:20:44;;;;;;;5.00;3.13;;;;;;;27.02;37.25;99556.47;5119921;27;20369;-65
2023/05/24 10:23:17;;;;;;;6.30;3.67;;;;;;;27.16;36.44;99561.34;5105336;27;20043;-65
2023/05/24 10:25:49;;;;;;;5.35;3.45;;;;;;;27.13;38.79;99554.56;5123397;27;20051;-65
2023/05/24 10:28:17;;;;;;;5.30;3.25;;;;;;;27.22;35.08;99555.63;5109938;27;20039;-65
2023/05/24 10:30:57;;;;;;;3.50;3.17;;;;;;;27.29;34.29;99552.63;5123497;27;20048;-63
2023/05/24 10:33:23;;;;;;;3.92;3.40;;;;;;;27.30;33.79;99549.63;5104646;27;20046;-65
2023/05/24 10:35:50;;;;;;;5.85;3.22;;;;;;;27.25;35.48;99554.25;5121348;27;20044;-65
2023/05/24 10:38:15;;;;;;;5.15;3.25;;;;;;;27.18;34.31;99551.03;5121743;27;20449;-65
2023/05/24 10:40:42;;;;;;;3.92;3.53;;;;;;;26.95;34.94;99553.19;5122381;27;20031;-65
2023/05/24 10:43:09;;;;;;;4.20;3.30;;;;;;;26.99;35.14;99548.84;5119237;27;20029;-65
2023/05/24 10:45:40;;;;;;;5.10;3.22;;;;;;;27.03;35.68;99538.25;5128748;27;20035;-65
2023/05/24 10:48:12;;;;;;;4.57;3.47;;;;;;;27.07;35.30;99539.38;5120867;27;20046;-65
2023/05/24 10:50:41;;;;;;;4.13;3.35;;;;;;;27.15;38.73;99533.38;5119960;27;20084;-65
2023/05/24 10:53:15;;;;;;;6.90;3.45;;;;;;;27.17;36.22;99528.47;5127446;27;20039;-65
2023/05/24 10:55:58;;;;;;;4.00;3.28;;;;;;;27.00;35.10;99522.50;5120564;27;20051;-65
2023/05/24 10:58:43;;;;;;;4.80;3.50;;;;;;;26.83;35.76;99522.78;5124425;27;20295;-64
2023/05/24 11:01:29;;;;;;;4.93;3.30;;;;;;;26.93;35.70;99522.75;5118879;27;20269;-65
2023/05/24 11:04:17;;;;;;;5.30;3.78;;;;;;;26.96;37.57;99524.91;5119638;27;20297;-65
2023/05/24 11:07:00;;;;;;;4.03;3.53;;;;;;;26.73;38.82;99529.03;5118719;28;20039;-65
2023/05/24 11:09:27;;;;;;;6.22;4.35;;;;;;;26.63;39.44;99526.31;5123267;27;20092;-65
2023/05/24 11:12:00;;;;;;;4.93;3.80;;;;;;;26.69;39.54;99516.28;5124000;27;20058;-65
2023/05/24 11:14:28;;;;;;;4.20;3.78;;;;;;;26.60;38.46;99520.63;5122241;27;20035;-65
2023/05/24 11:16:54;;;;;;;5.45;3.95;;;;;;;26.44;38.90;99524.44;5126013;28;20042;-65
2023/05/24 11:19:29;;;;;;;7.68;4.25;;;;;;;26.39;39.53;99523.34;5131133;28;20372;-65
2023/05/24 11:21:59;;;;;;;7.43;3.95;;;;;;;26.35;40.91;99518.72;5138228;28;20209;-65
2023/05/24 11:24:26;;;;;;;4.82;4.10;;;;;;;26.29;39.77;99526.00;5137641;28;20035;-65
2023/05/24 11:26:55;;;;;;;4.50;3.58;;;;;;;26.30;38.61;99522.22;5137641;27;20236;-65
2023/05/24 11:29:21;;;;;;;4.32;3.60;;;;;;;26.39;39.20;99522.53;5138202;28;20190;-65
2023/05/24 11:32:03;;;;;;;3.72;3.42;;;;;;;26.30;39.91;99524.94;5137440;27;20297;-65
2023/05/24 11:34:29;;;;;;;5.68;3.33;;;;;;;26.44;39.76;99522.53;5138067;27;20075;-65